Time;durP1;ratioP1;P1;durP2;ratioP2;P2;SDS_P1;SDS_P2;PMS_P1;PMS_P2;Temp;Humidity;BMP_temperature;BMP_pressure;BME280_temperature;BME280_humidity;BME280_pressure;Samples;Min_cycle;Max_cycle;Signal;HPM_P1;HPM_P2
2023/09/26 00:00:37;;;;;;;6.25;4.03;;;;;;;-141.50;100.00;63355.56;5025306;28;20519;-74
2023/09/26 00:02:57;;;;;;;7.93;3.63;;;;;;;-141.50;100.00;63355.56;5023855;28;20136;-74
2023/09/26 00:05:23;;;;;;;6.80;4.15;;;;;;;-141.50;100.00;63355.56;5026536;28;20045;-74
2023/09/26 00:07:55;;;;;;;7.18;3.95;;;;;;;-141.50;100.00;63355.56;5024843;28;20052;-74
2023/09/26 00:10:22;;;;;;;5.78;3.85;;;;;;;-141.50;100.00;63355.56;5024791;28;20041;-74
2023/09/26 00:12:48;;;;;;;5.72;3.65;;;;;;;-141.50;100.00;63355.56;5024680;28;20113;-74
2023/09/26 00:15:15;;;;;;;7.93;4.20;;;;;;;-141.50;100.00;63355.56;5008227;28;20057;-75
2023/09/26 00:17:42;;;;;;;9.18;4.72;;;;;;;-141.50;100.00;63355.56;5026499;28;20120;-73
2023/09/26 00:20:10;;;;;;;7.25;4.25;;;;;;;-141.50;100.00;63355.56;5022766;28;20046;-75
2023/09/26 00:22:37;;;;;;;10.98;5.10;;;;;;;-141.50;100.00;63355.56;5022936;28;20414;-74
2023/09/26 00:25:05;;;;;;;9.07;5.28;;;;;;;-141.50;100.00;63355.56;5025396;28;20068;-74
2023/09/26 00:27:32;;;;;;;10.52;4.93;;;;;;;-141.50;100.00;63355.56;5027707;28;20053;-74
2023/09/26 00:29:59;;;;;;;6.95;3.95;;;;;;;-141.50;100.00;63355.56;5026945;28;20046;-75
2023/09/26 00:32:26;;;;;;;6.70;3.85;;;;;;;-141.50;100.00;63355.56;5028468;28;20041;-74
2023/09/26 00:34:53;;;;;;;6.68;3.88;;;;;;;-141.50;100.00;63355.56;5028035;28;20068;-75
2023/09/26 00:37:20;;;;;;;9.45;4.85;;;;;;;-141.50;100.00;63355.56;5028137;28;20579;-74
2023/09/26 00:39:47;;;;;;;6.40;4.40;;;;;;;-141.50;100.00;63355.56;5028423;28;20148;-73
2023/09/26 00:42:14;;;;;;;8.57;5.20;;;;;;;-141.50;100.00;63355.56;5028503;28;20042;-75
2023/09/26 00:44:41;;;;;;;7.38;4.18;;;;;;;-141.50;100.00;63355.56;5030931;28;20056;-73
2023/09/26 00:47:08;;;;;;;8.45;4.90;;;;;;;-141.50;100.00;63355.56;5030348;28;20068;-74
2023/09/26 00:49:35;;;;;;;7.22;4.28;;;;;;;-141.50;100.00;63355.56;5029320;28;20041;-74
2023/09/26 00:52:04;;;;;;;8.40;4.25;;;;;;;-141.50;100.00;63355.56;5028134;28;20450;-73
2023/09/26 00:54:32;;;;;;;5.95;3.78;;;;;;;-141.50;100.00;63355.56;5028959;28;20565;-74
2023/09/26 00:57:00;;;;;;;7.75;4.32;;;;;;;-141.50;100.00;63355.56;5027981;28;20046;-74
2023/09/26 00:59:28;;;;;;;7.50;4.10;;;;;;;-141.50;100.00;63355.56;5029587;28;20030;-74
2023/09/26 01:01:55;;;;;;;5.80;3.63;;;;;;;-141.50;100.00;63355.56;5027497;28;20426;-75
2023/09/26 01:04:22;;;;;;;7.40;4.30;;;;;;;-141.50;100.00;63355.56;5023507;28;20041;-75
2023/09/26 01:06:50;;;;;;;6.78;3.92;;;;;;;-141.50;100.00;63355.56;5028257;28;20049;-75
2023/09/26 01:09:17;;;;;;;7.20;4.03;;;;;;;-141.50;100.00;63355.56;5027856;28;20112;-75
2023/09/26 01:11:44;;;;;;;7.30;3.65;;;;;;;-141.50;100.00;63355.56;5027862;28;20529;-75
2023/09/26 01:14:11;;;;;;;7.00;3.80;;;;;;;-141.50;100.00;63355.56;5028051;28;21034;-74
2023/09/26 01:16:38;;;;;;;7.53;4.32;;;;;;;-141.50;100.00;63355.56;5029378;28;20045;-74
2023/09/26 01:19:06;;;;;;;7.03;4.18;;;;;;;-141.50;100.00;63355.56;5028629;28;20073;-74
2023/09/26 01:21:34;;;;;;;6.07;3.88;;;;;;;-141.50;100.00;63355.56;5027435;28;20049;-72
2023/09/26 01:24:02;;;;;;;5.72;3.55;;;;;;;-141.50;100.00;63355.56;5027669;28;20049;-74
2023/09/26 01:26:36;;;;;;;6.55;3.90;;;;;;;-141.50;100.00;63355.56;5029336;28;20045;-75
2023/09/26 01:29:04;;;;;;;5.63;3.72;;;;;;;-141.50;100.00;63355.56;5029376;28;20037;-75
2023/09/26 01:31:36;;;;;;;6.22;3.33;;;;;;;-141.50;100.00;63355.56;5034298;28;20056;-74
2023/09/26 01:34:03;;;;;;;8.85;3.50;;;;;;;-141.50;100.00;63355.56;5026467;28;20195;-74
2023/09/26 01:36:32;;;;;;;8.85;4.15;;;;;;;-141.50;100.00;63355.56;5028672;28;20053;-74
2023/09/26 01:39:00;;;;;;;6.38;3.75;;;;;;;-141.50;100.00;63355.56;5025685;28;20048;-75
2023/09/26 01:41:27;;;;;;;5.85;3.75;;;;;;;-141.50;100.00;63355.56;5027325;28;20037;-73
2023/09/26 01:43:54;;;;;;;5.82;3.47;;;;;;;-141.50;100.00;63355.56;5028771;28;20038;-74
2023/09/26 01:46:21;;;;;;;6.43;3.63;;;;;;;-141.50;100.00;63355.56;5036507;28;20049;-73
2023/09/26 01:48:48;;;;;;;9.23;4.00;;;;;;;-141.50;100.00;63355.56;5026934;28;20575;-74
2023/09/26 01:51:15;;;;;;;7.97;4.13;;;;;;;-141.50;100.00;63355.56;5026959;28;20254;-73
2023/09/26 01:53:42;;;;;;;8.05;4.00;;;;;;;-141.50;100.00;63355.56;5026673;28;20042;-73
2023/09/26 01:56:09;;;;;;;6.13;4.03;;;;;;;-141.50;100.00;63355.56;5043788;28;20097;-75
2023/09/26 01:58:36;;;;;;;6.78;3.70;;;;;;;-141.50;100.00;63355.56;5010883;28;20431;-75
2023/09/26 02:01:03;;;;;;;7.22;4.13;;;;;;;-141.50;100.00;63355.56;5026043;28;20052;-75
2023/09/26 02:03:30;;;;;;;6.72;3.70;;;;;;;-141.50;100.00;63355.56;5027024;28;20069;-74
2023/09/26 02:05:58;;;;;;;5.72;3.80;;;;;;;-141.50;100.00;63355.56;5024507;28;20042;-75
2023/09/26 02:08:25;;;;;;;7.60;4.13;;;;;;;-141.50;100.00;63355.56;5027589;28;20054;-75
2023/09/26 02:10:52;;;;;;;10.32;3.95;;;;;;;-141.50;100.00;63355.56;5025657;28;20056;-75
2023/09/26 02:13:19;;;;;;;5.90;3.75;;;;;;;-141.50;100.00;63355.56;5026054;28;20041;-75
2023/09/26 02:15:46;;;;;;;9.20;4.43;;;;;;;-141.50;100.00;63355.56;5026686;28;20045;-75
2023/09/26 02:18:13;;;;;;;5.95;3.70;;;;;;;-141.50;100.00;63355.56;5026824;28;20045;-75
2023/09/26 02:20:40;;;;;;;7.47;4.68;;;;;;;-141.50;100.00;63355.56;5026649;28;20049;-75
2023/09/26 02:23:07;;;;;;;6.57;4.03;;;;;;;-141.50;100.00;63355.56;5026270;28;20061;-75
2023/09/26 02:25:34;;;;;;;5.30;3.50;;;;;;;-141.50;100.00;63355.56;5026733;28;20037;-75
2023/09/26 02:28:00;;;;;;;7.78;4.05;;;;;;;-141.50;100.00;63355.56;5026469;28;20095;-75
2023/09/26 02:30:28;;;;;;;8.00;4.18;;;;;;;-141.50;100.00;63355.56;5026782;28;20050;-75
2023/09/26 02:32:55;;;;;;;6.93;4.07;;;;;;;-141.50;100.00;63355.56;5026029;28;20042;-74
2023/09/26 02:35:24;;;;;;;7.20;4.40;;;;;;;-141.50;100.00;63355.56;5036015;28;20041;-75
2023/09/26 02:37:51;;;;;;;7.57;3.95;;;;;;;-141.50;100.00;63355.56;5026769;28;20049;-74
2023/09/26 02:40:17;;;;;;;7.53;4.38;;;;;;;-141.50;100.00;63355.56;5008847;28;20068;-74
2023/09/26 02:42:45;;;;;;;8.27;4.07;;;;;;;-141.50;100.00;63355.56;5009196;28;20046;-74
2023/09/26 02:45:13;;;;;;;6.15;3.50;;;;;;;-141.50;100.00;63355.56;5025391;28;20466;-75
2023/09/26 02:47:41;;;;;;;7.63;3.85;;;;;;;-141.50;100.00;63355.56;5026558;28;20038;-73
2023/09/26 02:50:08;;;;;;;6.95;4.10;;;;;;;-141.50;100.00;63355.56;5024556;28;20076;-75
2023/09/26 02:52:37;;;;;;;9.43;3.88;;;;;;;-141.50;100.00;63355.56;5010013;28;20486;-75
2023/09/26 02:55:04;;;;;;;8.40;4.10;;;;;;;-141.50;100.00;63355.56;5024098;28;20570;-75
2023/09/26 02:57:34;;;;;;;8.52;4.70;;;;;;;-141.50;100.00;63355.56;5027768;28;20045;-75
2023/09/26 03:00:05;;;;;;;8.35;4.65;;;;;;;-141.50;100.00;63355.56;5008478;28;20047;-75
2023/09/26 03:02:32;;;;;;;7.15;4.35;;;;;;;-141.50;100.00;63355.56;5009166;28;20038;-75
2023/09/26 03:04:59;;;;;;;11.10;4.20;;;;;;;-141.50;100.00;63355.56;5041830;28;20070;-74
2023/09/26 03:07:26;;;;;;;9.13;4.03;;;;;;;-141.50;100.00;63355.56;5026303;28;20050;-74
2023/09/26 03:09:53;;;;;;;6.75;4.05;;;;;;;-141.50;100.00;63355.56;5027615;28;21581;-74
2023/09/26 03:12:20;;;;;;;8.70;4.35;;;;;;;-141.50;100.00;63355.56;5027455;28;20415;-73
2023/09/26 03:14:47;;;;;;;8.38;4.93;;;;;;;-141.50;100.00;63355.56;5028704;28;20045;-73
2023/09/26 03:17:14;;;;;;;7.97;4.38;;;;;;;-141.50;100.00;63355.56;5026457;28;20049;-75
2023/09/26 03:19:44;;;;;;;7.18;4.55;;;;;;;-141.50;100.00;63355.56;5025569;28;20515;-74
2023/09/26 03:22:11;;;;;;;9.95;5.03;;;;;;;-141.50;100.00;63355.56;5025378;28;20053;-74
2023/09/26 03:24:39;;;;;;;6.93;4.43;;;;;;;-141.50;100.00;63355.56;5025491;28;20049;-74
2023/09/26 03:27:05;;;;;;;8.90;4.55;;;;;;;-141.50;100.00;63355.56;5025817;28;20314;-75
2023/09/26 03:29:32;;;;;;;8.32;4.40;;;;;;;-141.50;100.00;63355.56;5027137;28;20046;-73
2023/09/26 03:31:59;;;;;;;8.63;4.85;;;;;;;-141.50;100.00;63355.56;5024845;28;20047;-74
2023/09/26 03:34:26;;;;;;;8.43;4.93;;;;;;;-141.50;100.00;63355.56;5025936;28;20515;-74
2023/09/26 03:36:53;;;;;;;9.43;5.70;;;;;;;-141.50;100.00;63355.56;5021618;28;20080;-74
2023/09/26 03:39:20;;;;;;;12.80;6.32;;;;;;;-141.50;100.00;63355.56;5025189;28;20045;-75
2023/09/26 03:41:46;;;;;;;10.93;6.22;;;;;;;-141.50;100.00;63355.56;5025706;28;20117;-75
2023/09/26 03:44:13;;;;;;;9.93;5.82;;;;;;;-141.50;100.00;63355.56;5025405;28;20064;-77
2023/09/26 03:46:40;;;;;;;10.00;6.03;;;;;;;-141.50;100.00;63355.56;5026899;28;20526;-75
2023/09/26 03:49:07;;;;;;;13.30;6.25;;;;;;;-141.50;100.00;63355.56;5024964;28;20456;-75
2023/09/26 03:51:34;;;;;;;12.45;6.35;;;;;;;-141.50;100.00;63355.56;5024789;28;21983;-75
2023/09/26 03:54:01;;;;;;;11.80;6.75;;;;;;;-141.50;100.00;63355.56;5025805;28;20466;-75
2023/09/26 03:56:27;;;;;;;12.55;6.20;;;;;;;-141.50;100.00;63355.56;5026447;28;20041;-74
2023/09/26 03:58:56;;;;;;;11.60;6.40;;;;;;;-141.50;100.00;63355.56;5025907;28;20069;-75
2023/09/26 04:01:23;;;;;;;11.95;6.82;;;;;;;-141.50;100.00;63355.56;5018380;28;20125;-75
2023/09/26 04:03:50;;;;;;;14.20;6.63;;;;;;;-141.50;100.00;63355.56;5023945;28;20049;-75
2023/09/26 04:06:17;;;;;;;13.55;6.50;;;;;;;-141.50;100.00;63355.56;5026241;28;20056;-74
2023/09/26 04:08:44;;;;;;;11.80;6.05;;;;;;;-141.50;100.00;63355.56;5023910;28;20523;-74
2023/09/26 04:11:14;;;;;;;11.10;6.13;;;;;;;-141.50;100.00;63355.56;5019457;28;20112;-75
2023/09/26 04:13:42;;;;;;;11.75;6.35;;;;;;;-141.50;100.00;63355.56;5038517;28;20042;-75
2023/09/26 04:16:09;;;;;;;10.80;6.07;;;;;;;-141.50;100.00;63355.56;5017737;28;20389;-73
2023/09/26 04:18:37;;;;;;;10.88;6.15;;;;;;;-141.50;100.00;63355.56;5022691;28;20770;-74
2023/09/26 04:21:07;;;;;;;9.68;6.13;;;;;;;-141.50;100.00;63355.56;5025073;28;20065;-74
2023/09/26 04:23:38;;;;;;;12.20;5.85;;;;;;;-141.50;100.00;63355.56;5023114;28;20126;-74
2023/09/26 04:26:14;;;;;;;11.45;6.10;;;;;;;-141.50;100.00;63355.56;5021610;28;20048;-75
2023/09/26 04:28:45;;;;;;;10.65;6.60;;;;;;;-141.50;100.00;63355.56;5021243;28;20045;-74
2023/09/26 04:31:17;;;;;;;10.18;6.15;;;;;;;-141.50;100.00;63355.56;5021066;28;21674;-75
2023/09/26 04:33:46;;;;;;;10.45;6.10;;;;;;;-141.50;100.00;63355.56;5021677;28;21523;-74
2023/09/26 04:36:14;;;;;;;15.23;6.10;;;;;;;-141.50;100.00;63355.56;5023066;28;20557;-73
2023/09/26 04:38:41;;;;;;;12.70;6.28;;;;;;;-141.50;100.00;63355.56;5017388;28;20038;-74
2023/09/26 04:41:08;;;;;;;10.88;5.70;;;;;;;-141.50;100.00;63355.56;5023891;28;20948;-73
2023/09/26 04:43:36;;;;;;;12.45;6.63;;;;;;;-141.50;100.00;63355.56;5023815;28;20113;-72
2023/09/26 04:46:10;;;;;;;11.15;5.93;;;;;;;-141.50;100.00;63355.56;5024149;28;20046;-73
2023/09/26 04:48:37;;;;;;;9.90;5.88;;;;;;;-141.50;100.00;63355.56;5024402;28;20049;-72
2023/09/26 04:51:08;;;;;;;12.57;5.82;;;;;;;-141.50;100.00;63355.56;5024202;28;20520;-73
2023/09/26 04:53:35;;;;;;;10.20;6.00;;;;;;;-141.50;100.00;63355.56;5025024;28;20041;-73
2023/09/26 04:56:03;;;;;;;12.25;6.55;;;;;;;-141.50;100.00;63355.56;5022434;28;20041;-73
2023/09/26 04:58:32;;;;;;;13.90;6.88;;;;;;;-141.50;100.00;63355.56;5021161;28;20058;-74
2023/09/26 05:01:02;;;;;;;15.02;7.35;;;;;;;-141.50;100.00;63355.56;5022388;28;20045;-73
2023/09/26 05:03:29;;;;;;;13.80;7.15;;;;;;;-141.50;100.00;63355.56;5022128;28;20037;-74
2023/09/26 05:05:56;;;;;;;11.70;6.72;;;;;;;-141.50;100.00;63355.56;5016538;28;20412;-73
2023/09/26 05:08:23;;;;;;;12.27;6.65;;;;;;;-141.50;100.00;63355.56;5023315;28;20415;-74
2023/09/26 05:10:50;;;;;;;10.43;5.72;;;;;;;-141.50;100.00;63355.56;5023329;28;20041;-74
2023/09/26 05:13:16;;;;;;;12.40;5.68;;;;;;;-141.50;100.00;63355.56;5024120;28;20095;-74
2023/09/26 05:15:43;;;;;;;11.98;7.05;;;;;;;-141.50;100.00;63355.56;5029380;28;20068;-74
2023/09/26 05:18:10;;;;;;;11.60;6.50;;;;;;;-141.50;100.00;63355.56;5028497;28;20055;-74
2023/09/26 05:20:37;;;;;;;12.23;6.85;;;;;;;-141.50;100.00;63355.56;5027223;28;20482;-74
2023/09/26 05:23:04;;;;;;;13.10;6.53;;;;;;;-141.50;100.00;63355.56;5025441;28;20862;-74
2023/09/26 05:25:33;;;;;;;12.32;6.78;;;;;;;-141.50;100.00;63355.56;5027336;28;20053;-73
2023/09/26 05:28:00;;;;;;;16.35;7.28;;;;;;;-141.50;100.00;63355.56;5027152;28;20041;-75
2023/09/26 05:30:27;;;;;;;12.35;7.07;;;;;;;-141.50;100.00;63355.56;5028869;28;20041;-74
2023/09/26 05:32:54;;;;;;;13.25;6.90;;;;;;;-141.50;100.00;63355.56;5028734;28;20042;-75
2023/09/26 05:35:23;;;;;;;13.05;6.68;;;;;;;-141.50;100.00;63355.56;5022304;28;20137;-74
2023/09/26 05:37:50;;;;;;;12.55;6.95;;;;;;;-141.50;100.00;63355.56;5028460;28;20519;-74
2023/09/26 05:40:17;;;;;;;14.15;8.18;;;;;;;-141.50;100.00;63355.56;5028786;28;20067;-74
2023/09/26 05:42:43;;;;;;;13.55;8.20;;;;;;;-141.50;100.00;63355.56;5027594;28;20045;-74
2023/09/26 05:45:11;;;;;;;15.65;7.93;;;;;;;-141.50;100.00;63355.56;5028830;28;20091;-74
2023/09/26 05:47:38;;;;;;;15.77;7.80;;;;;;;-141.50;100.00;63355.56;5028975;28;20045;-74
2023/09/26 05:50:06;;;;;;;15.70;7.55;;;;;;;-141.50;100.00;63355.56;5027846;28;20048;-74
2023/09/26 05:52:33;;;;;;;15.02;7.75;;;;;;;-141.50;100.00;63355.56;5028594;28;20037;-74
2023/09/26 05:55:00;;;;;;;12.68;6.72;;;;;;;-141.50;100.00;63355.56;5024514;28;20168;-74
2023/09/26 05:57:27;;;;;;;16.88;7.10;;;;;;;-141.50;100.00;63355.56;5027847;28;20033;-74
2023/09/26 05:59:54;;;;;;;14.73;7.18;;;;;;;-141.50;100.00;63355.56;5027470;28;20057;-74
2023/09/26 06:02:21;;;;;;;12.60;7.07;;;;;;;-141.50;100.00;63355.56;5026530;28;20041;-74
2023/09/26 06:04:48;;;;;;;13.13;7.40;;;;;;;-141.50;100.00;63355.56;5026549;28;20052;-72
2023/09/26 06:07:15;;;;;;;11.68;6.90;;;;;;;-141.50;100.00;63355.56;5028186;28;20061;-74
2023/09/26 06:09:42;;;;;;;13.27;7.85;;;;;;;-141.50;100.00;63355.56;5026456;28;20049;-73
2023/09/26 06:12:26;;;;;;;12.40;7.07;;;;;;;-141.50;100.00;63355.56;5020497;28;20254;-74
2023/09/26 06:14:55;;;;;;;14.57;7.10;;;;;;;-141.50;100.00;63355.56;5023859;28;20056;-75
2023/09/26 06:17:21;;;;;;;13.43;7.50;;;;;;;-141.50;100.00;63355.56;5027804;28;20063;-74
2023/09/26 06:19:48;;;;;;;13.50;7.82;;;;;;;-141.50;100.00;63355.56;5025498;28;20072;-75
2023/09/26 06:22:16;;;;;;;17.25;9.25;;;;;;;-141.50;100.00;63355.56;5026244;28;20041;-75
2023/09/26 06:24:43;;;;;;;20.23;10.57;;;;;;;-141.50;100.00;63355.56;5026992;28;20113;-75
2023/09/26 06:27:10;;;;;;;23.73;11.45;;;;;;;-141.50;100.00;63355.56;5027068;28;20041;-74
2023/09/26 06:29:39;;;;;;;24.85;12.20;;;;;;;-141.50;100.00;63355.56;5027221;28;20092;-74
2023/09/26 06:32:07;;;;;;;24.85;12.27;;;;;;;-141.50;100.00;63355.56;5026670;28;20897;-74
2023/09/26 06:34:35;;;;;;;27.88;14.10;;;;;;;-141.50;100.00;63355.56;5026028;28;20037;-75
2023/09/26 06:37:02;;;;;;;29.65;13.77;;;;;;;-141.50;100.00;63355.56;5025836;28;20045;-75
2023/09/26 06:39:30;;;;;;;27.80;13.70;;;;;;;-141.50;100.00;63355.56;5027534;28;20049;-73
2023/09/26 06:41:57;;;;;;;30.98;14.13;;;;;;;-141.50;100.00;63355.56;5028311;28;20439;-74
2023/09/26 06:44:24;;;;;;;28.40;14.43;;;;;;;-141.50;100.00;63355.56;5035375;28;20053;-74
2023/09/26 06:46:51;;;;;;;33.50;14.63;;;;;;;-141.50;100.00;63355.56;5028139;28;20065;-73
2023/09/26 06:49:19;;;;;;;31.23;13.43;;;;;;;-141.50;100.00;63355.56;5025823;28;20073;-74
2023/09/26 06:51:46;;;;;;;28.52;13.07;;;;;;;-141.50;100.00;63355.56;5026675;28;20045;-73
2023/09/26 06:54:13;;;;;;;24.35;12.88;;;;;;;-141.50;100.00;63355.56;5025857;28;20041;-74
2023/09/26 06:56:40;;;;;;;28.38;13.45;;;;;;;-141.50;100.00;63355.56;5027117;28;20136;-74
2023/09/26 06:59:08;;;;;;;27.08;13.73;;;;;;;-141.50;100.00;63355.56;5026932;28;20061;-74
2023/09/26 07:01:35;;;;;;;26.33;12.88;;;;;;;-141.50;100.00;63355.56;5026924;28;20068;-74
2023/09/26 07:04:03;;;;;;;25.40;12.68;;;;;;;-141.50;100.00;63355.56;5026810;28;20552;-74
2023/09/26 07:06:30;;;;;;;27.98;13.15;;;;;;;-141.50;100.00;63355.56;5027110;28;20455;-74
2023/09/26 07:08:58;;;;;;;25.08;13.23;;;;;;;-141.50;100.00;63355.56;5027047;28;20084;-74
2023/09/26 07:11:27;;;;;;;29.65;13.65;;;;;;;-141.50;100.00;63355.56;5019386;28;21356;-74
2023/09/26 07:13:54;;;;;;;23.23;12.07;;;;;;;-141.50;100.00;63355.56;5026669;28;20129;-75
2023/09/26 07:16:21;;;;;;;28.60;13.82;;;;;;;-141.50;100.00;63355.56;5002133;28;20045;-75
2023/09/26 07:18:48;;;;;;;29.75;12.55;;;;;;;-141.50;100.00;63355.56;5026516;28;20050;-74
2023/09/26 07:21:15;;;;;;;28.63;13.85;;;;;;;-141.50;100.00;63355.56;5024109;28;20045;-75
2023/09/26 07:23:42;;;;;;;25.92;12.13;;;;;;;-141.50;100.00;63355.56;5024996;28;20451;-76
2023/09/26 07:26:17;;;;;;;23.65;12.57;;;;;;;-141.50;100.00;63355.56;5027267;28;20049;-77
2023/09/26 07:28:44;;;;;;;30.60;13.03;;;;;;;-141.50;100.00;63355.56;5026666;28;20051;-75
2023/09/26 07:31:14;;;;;;;40.10;15.10;;;;;;;-141.50;100.00;63355.56;5024421;28;20095;-76
2023/09/26 07:33:42;;;;;;;99.45;29.73;;;;;;;-141.50;100.00;63355.56;5026251;28;20130;-76
2023/09/26 07:36:10;;;;;;;35.05;14.70;;;;;;;-141.50;100.00;63355.56;5025566;28;20053;-75
2023/09/26 07:38:37;;;;;;;26.38;12.88;;;;;;;-141.50;100.00;63355.56;5025868;28;20500;-76
2023/09/26 07:41:04;;;;;;;24.42;12.82;;;;;;;-141.50;100.00;63355.56;5024100;28;20105;-75
2023/09/26 07:43:32;;;;;;;26.70;13.43;;;;;;;-141.50;100.00;63355.56;5026821;28;20576;-74
2023/09/26 07:46:06;;;;;;;28.05;13.05;;;;;;;-141.50;100.00;63355.56;5025348;28;21731;-74
2023/09/26 07:48:34;;;;;;;26.73;12.20;;;;;;;-141.50;100.00;63355.56;5025868;28;20431;-75
2023/09/26 07:51:02;;;;;;;26.75;13.05;;;;;;;-141.50;100.00;63355.56;5026401;28;20057;-73
2023/09/26 07:53:29;;;;;;;21.90;11.25;;;;;;;-141.50;100.00;63355.56;5026249;28;20041;-75
2023/09/26 07:55:58;;;;;;;22.33;11.27;;;;;;;-141.50;100.00;63355.56;5025487;28;20041;-73
2023/09/26 07:58:25;;;;;;;19.50;10.77;;;;;;;-141.50;100.00;63355.56;5024728;28;20041;-73
2023/09/26 08:00:53;;;;;;;19.38;10.18;;;;;;;-141.50;100.00;63355.56;5023841;28;20518;-75
2023/09/26 08:03:21;;;;;;;21.77;10.77;;;;;;;-141.50;100.00;63355.56;5025429;28;20500;-75
2023/09/26 08:05:48;;;;;;;20.45;9.85;;;;;;;-141.50;100.00;63355.56;5025508;28;20476;-74
2023/09/26 08:08:16;;;;;;;19.25;9.95;;;;;;;-141.50;100.00;63355.56;5024468;28;20046;-73
2023/09/26 08:10:43;;;;;;;18.27;9.15;;;;;;;-141.50;100.00;63355.56;5024531;28;20046;-73
2023/09/26 08:13:09;;;;;;;20.27;9.05;;;;;;;-141.50;100.00;63355.56;5025268;28;20045;-73
2023/09/26 08:15:36;;;;;;;16.02;9.00;;;;;;;-141.50;100.00;63355.56;5025847;28;20393;-73
2023/09/26 08:18:04;;;;;;;17.13;8.55;;;;;;;-141.50;100.00;63355.56;5022721;28;20496;-73
2023/09/26 08:20:31;;;;;;;15.68;8.45;;;;;;;-141.50;100.00;63355.56;5025280;28;20042;-73
2023/09/26 08:22:58;;;;;;;18.88;8.57;;;;;;;-141.50;100.00;63355.56;5025239;28;20045;-73
2023/09/26 08:25:25;;;;;;;15.20;7.85;;;;;;;-141.50;100.00;63355.56;5018187;28;20049;-73
2023/09/26 08:27:52;;;;;;;12.10;6.88;;;;;;;-141.50;100.00;63355.56;5027459;28;20046;-72
2023/09/26 08:30:19;;;;;;;19.38;7.53;;;;;;;-141.50;100.00;63355.56;5024391;28;20045;-73
2023/09/26 08:32:46;;;;;;;12.90;6.93;;;;;;;-141.50;100.00;63355.56;5024809;28;20042;-73
2023/09/26 08:35:13;;;;;;;11.85;6.93;;;;;;;-141.50;100.00;63355.56;5023595;28;20065;-73
2023/09/26 08:37:40;;;;;;;11.20;6.95;;;;;;;-141.50;100.00;63355.56;5024391;28;20499;-73
2023/09/26 08:40:12;;;;;;;12.80;6.95;;;;;;;-141.50;100.00;63355.56;5025242;28;20136;-74
2023/09/26 08:42:45;;;;;;;15.38;8.57;;;;;;;-141.50;100.00;63355.56;5024115;28;20072;-73
2023/09/26 08:45:12;;;;;;;14.10;7.10;;;;;;;-141.50;100.00;63355.56;5023847;28;20077;-72
2023/09/26 08:47:43;;;;;;;14.18;6.65;;;;;;;-141.50;100.00;63355.56;5025691;28;20045;-72
2023/09/26 08:50:11;;;;;;;14.73;6.70;;;;;;;-141.50;100.00;63355.56;5027414;28;20046;-73
2023/09/26 08:52:38;;;;;;;10.43;6.50;;;;;;;-141.50;100.00;63355.56;5037712;28;20045;-73
2023/09/26 08:55:05;;;;;;;12.52;6.25;;;;;;;-141.50;100.00;63355.56;5027972;28;21745;-73
2023/09/26 08:57:33;;;;;;;10.40;5.70;;;;;;;-141.50;100.00;63355.56;5027837;28;20519;-73
2023/09/26 09:00:03;;;;;;;13.25;6.15;;;;;;;-141.50;100.00;63355.56;5028438;28;20120;-73
2023/09/26 09:02:31;;;;;;;11.73;5.65;;;;;;;-141.50;100.00;63355.56;5027465;28;20066;-73
2023/09/26 09:04:59;;;;;;;10.60;5.45;;;;;;;-141.50;100.00;63355.56;5027087;28;20046;-73
2023/09/26 09:07:27;;;;;;;14.00;5.80;;;;;;;-141.50;100.00;63355.56;5022946;28;20466;-73
2023/09/26 09:10:11;;;;;;;11.60;6.57;;;;;;;-141.50;100.00;63355.56;5028674;28;20091;-73
2023/09/26 09:12:40;;;;;;;9.90;5.53;;;;;;;-141.50;100.00;63355.56;5023376;28;20500;-73
2023/09/26 09:15:22;;;;;;;9.25;5.40;;;;;;;-141.50;100.00;63355.56;5027827;28;20499;-72
2023/09/26 09:17:52;;;;;;;10.73;6.10;;;;;;;-141.50;100.00;63355.56;5043258;28;20060;-73
2023/09/26 09:20:30;;;;;;;11.27;5.60;;;;;;;-141.50;100.00;63355.56;5027196;28;20072;-72
2023/09/26 09:23:05;;;;;;;8.70;5.28;;;;;;;-141.50;100.00;63355.56;5027754;28;20691;-73
2023/09/26 09:25:38;;;;;;;10.95;5.53;;;;;;;-141.50;100.00;63355.56;5022707;28;20225;-73
2023/09/26 09:28:07;;;;;;;8.57;4.97;;;;;;;-141.50;100.00;63355.56;5028245;28;20052;-72
2023/09/26 09:30:43;;;;;;;10.57;5.43;;;;;;;-141.50;100.00;63355.56;5028541;28;20046;-73
2023/09/26 09:33:13;;;;;;;8.32;5.15;;;;;;;-141.50;100.00;63355.56;5027312;28;20682;-73
2023/09/26 09:35:40;;;;;;;14.52;5.43;;;;;;;-141.50;100.00;63355.56;5026689;28;20540;-72
2023/09/26 09:38:08;;;;;;;10.75;5.88;;;;;;;-141.50;100.00;63355.56;5027999;28;20471;-72
2023/09/26 09:40:36;;;;;;;10.10;5.43;;;;;;;-141.50;100.00;63355.56;5028339;28;20041;-73
2023/09/26 09:43:03;;;;;;;7.75;4.85;;;;;;;-141.50;100.00;63355.56;5027943;28;20415;-73
2023/09/26 09:45:34;;;;;;;8.23;4.60;;;;;;;-141.50;100.00;63355.56;5028333;28;20581;-73
2023/09/26 09:48:03;;;;;;;11.68;5.78;;;;;;;-141.50;100.00;63355.56;5027239;28;20045;-73
2023/09/26 09:50:32;;;;;;;7.20;4.72;;;;;;;-141.50;100.00;63355.56;5026722;28;20053;-73
2023/09/26 09:53:01;;;;;;;9.15;4.65;;;;;;;-141.50;100.00;63355.56;5026184;28;20049;-73
2023/09/26 09:55:36;;;;;;;9.43;4.72;;;;;;;-141.50;100.00;63355.56;5006796;28;20463;-73
2023/09/26 09:58:08;;;;;;;8.27;5.20;;;;;;;-141.50;100.00;63355.56;5024869;28;20054;-73
2023/09/26 10:00:40;;;;;;;7.60;4.70;;;;;;;-141.50;100.00;63355.56;5026956;28;20042;-73
2023/09/26 10:03:08;;;;;;;8.40;4.45;;;;;;;-141.50;100.00;63355.56;5027732;28;20049;-73
2023/09/26 10:05:35;;;;;;;8.80;4.78;;;;;;;-141.50;100.00;63355.56;5028477;28;20046;-73
2023/09/26 10:08:04;;;;;;;9.00;4.57;;;;;;;-141.50;100.00;63355.56;5029832;28;20111;-73
2023/09/26 10:10:32;;;;;;;8.48;4.75;;;;;;;-141.50;100.00;63355.56;5027334;28;20545;-73
2023/09/26 10:13:00;;;;;;;10.10;5.22;;;;;;;-141.50;100.00;63355.56;5026140;28;20401;-73
2023/09/26 10:15:34;;;;;;;6.78;4.43;;;;;;;-141.50;100.00;63355.56;5023005;28;20076;-73
2023/09/26 10:18:02;;;;;;;7.03;5.22;;;;;;;-141.50;100.00;63355.56;5028128;28;20049;-73
2023/09/26 10:20:29;;;;;;;8.07;4.78;;;;;;;-141.50;100.00;63355.56;5019964;28;20525;-73
2023/09/26 10:23:15;;;;;;;;;;;;;;;-141.50;100.00;63355.56;5025923;28;20388;-73
2023/09/26 10:25:41;;;;;;;10.73;4.65;;;;;;;-141.50;100.00;63355.56;5028167;28;20479;-73
2023/09/26 10:28:08;;;;;;;7.80;4.80;;;;;;;-141.50;100.00;63355.56;5027445;28;20057;-73
2023/09/26 10:30:46;;;;;;;12.18;5.82;;;;;;;-141.50;100.00;63355.56;5027389;28;20446;-72
2023/09/26 10:33:13;;;;;;;9.68;5.00;;;;;;;-141.50;100.00;63355.56;5025561;28;20049;-73
2023/09/26 10:36:04;;;;;;;8.50;4.32;;;;;;;-141.50;100.00;63355.56;5026538;28;21797;-71
2023/09/26 10:38:31;;;;;;;7.20;4.35;;;;;;;-141.50;100.00;63355.56;5027895;28;20050;-73
2023/09/26 10:40:58;;;;;;;8.52;4.55;;;;;;;-141.50;100.00;63355.56;5026840;28;20456;-72
2023/09/26 10:43:27;;;;;;;5.70;4.03;;;;;;;-141.50;100.00;63355.56;5027073;28;20164;-73
2023/09/26 10:46:12;;;;;;;6.97;4.45;;;;;;;-141.50;100.00;63355.56;5026587;28;20049;-73
2023/09/26 10:48:40;;;;;;;7.28;4.72;;;;;;;-141.50;100.00;63355.56;5025762;28;20041;-72
2023/09/26 10:51:07;;;;;;;44.50;7.30;;;;;;;-141.50;100.00;63355.56;5026277;28;20045;-73
2023/09/26 10:53:54;;;;;;;21.70;5.53;;;;;;;-141.50;100.00;63355.56;5025741;28;21659;-72
2023/09/26 10:56:21;;;;;;;15.73;4.70;;;;;;;-141.50;100.00;63355.56;5027020;28;20487;-74
2023/09/26 10:58:48;;;;;;;6.65;4.50;;;;;;;-141.50;100.00;63355.56;5027343;28;20088;-72
2023/09/26 11:01:14;;;;;;;8.35;5.53;;;;;;;-141.50;100.00;63355.56;5026580;28;20051;-72
2023/09/26 11:03:41;;;;;;;9.90;5.15;;;;;;;-141.50;100.00;63355.56;5026279;28;20057;-73
2023/09/26 11:06:11;;;;;;;8.20;4.78;;;;;;;-141.50;100.00;63355.56;5026605;28;20057;-72
2023/09/26 11:08:58;;;;;;;8.15;4.75;;;;;;;-141.50;100.00;63355.56;5024060;28;20435;-72